sensor_id;sensor_type;location;lat;lon;timestamp;P1;durP1;ratioP1;P2;durP2;ratioP2
1829;SDS011;914;48.118;11.600;2023-03-20T00:00:07;5.73;;;4.03;;
1829;SDS011;914;48.118;11.600;2023-03-20T00:02:40;4.10;;;3.70;;
1829;SDS011;914;48.118;11.600;2023-03-20T00:05:19;3.97;;;3.60;;
1829;SDS011;914;48.118;11.600;2023-03-20T00:07:46;3.87;;;3.57;;
1829;SDS011;914;48.118;11.600;2023-03-20T00:10:13;5.50;;;3.43;;
1829;SDS011;914;48.118;11.600;2023-03-20T00:12:41;4.83;;;3.40;;
1829;SDS011;914;48.118;11.600;2023-03-20T00:15:29;3.43;;;3.13;;
1829;SDS011;914;48.118;11.600;2023-03-20T00:17:55;5.53;;;3.57;;
1829;SDS011;914;48.118;11.600;2023-03-20T00:20:21;4.43;;;3.40;;
1829;SDS011;914;48.118;11.600;2023-03-20T00:22:47;5.37;;;3.13;;
1829;SDS011;914;48.118;11.600;2023-03-20T00:25:17;4.13;;;3.03;;
1829;SDS011;914;48.118;11.600;2023-03-20T00:27:45;3.97;;;3.27;;
1829;SDS011;914;48.118;11.600;2023-03-20T00:30:19;3.57;;;2.90;;
1829;SDS011;914;48.118;11.600;2023-03-20T00:32:46;3.13;;;2.80;;
1829;SDS011;914;48.118;11.600;2023-03-20T00:35:20;3.40;;;2.70;;
1829;SDS011;914;48.118;11.600;2023-03-20T00:37:52;3.23;;;3.00;;
1829;SDS011;914;48.118;11.600;2023-03-20T00:40:18;3.97;;;3.07;;
1829;SDS011;914;48.118;11.600;2023-03-20T00:42:45;3.00;;;2.70;;
1829;SDS011;914;48.118;11.600;2023-03-20T00:45:18;3.03;;;2.70;;
1829;SDS011;914;48.118;11.600;2023-03-20T00:47:46;3.10;;;2.50;;
1829;SDS011;914;48.118;11.600;2023-03-20T00:50:20;2.60;;;2.37;;
1829;SDS011;914;48.118;11.600;2023-03-20T00:52:47;3.73;;;2.60;;
1829;SDS011;914;48.118;11.600;2023-03-20T00:55:14;2.47;;;2.27;;
1829;SDS011;914;48.118;11.600;2023-03-20T00:57:45;3.70;;;2.40;;
1829;SDS011;914;48.118;11.600;2023-03-20T01:02:59;2.60;;;2.40;;
1829;SDS011;914;48.118;11.600;2023-03-20T01:05:26;3.00;;;2.70;;
1829;SDS011;914;48.118;11.600;2023-03-20T01:07:53;2.20;;;2.00;;
1829;SDS011;914;48.118;11.600;2023-03-20T01:10:20;2.13;;;2.03;;
1829;SDS011;914;48.118;11.600;2023-03-20T01:12:47;4.90;;;2.50;;
1829;SDS011;914;48.118;11.600;2023-03-20T01:15:18;2.63;;;2.43;;
1829;SDS011;914;48.118;11.600;2023-03-20T01:17:56;2.70;;;2.50;;
1829;SDS011;914;48.118;11.600;2023-03-20T01:20:23;2.37;;;2.23;;
1829;SDS011;914;48.118;11.600;2023-03-20T01:22:52;2.33;;;2.17;;
1829;SDS011;914;48.118;11.600;2023-03-20T01:25:19;2.57;;;2.37;;
1829;SDS011;914;48.118;11.600;2023-03-20T01:27:49;2.10;;;2.00;;
1829;SDS011;914;48.118;11.600;2023-03-20T01:30:18;2.23;;;2.13;;
1829;SDS011;914;48.118;11.600;2023-03-20T01:32:46;2.50;;;2.30;;
1829;SDS011;914;48.118;11.600;2023-03-20T01:35:13;2.83;;;2.50;;
1829;SDS011;914;48.118;11.600;2023-03-20T01:37:44;2.17;;;2.00;;
1829;SDS011;914;48.118;11.600;2023-03-20T01:40:28;2.10;;;2.00;;
1829;SDS011;914;48.118;11.600;2023-03-20T01:42:58;2.50;;;2.30;;
1829;SDS011;914;48.118;11.600;2023-03-20T01:45:28;2.53;;;2.33;;
1829;SDS011;914;48.118;11.600;2023-03-20T01:48:01;2.23;;;2.00;;
1829;SDS011;914;48.118;11.600;2023-03-20T01:50:37;2.27;;;2.17;;
1829;SDS011;914;48.118;11.600;2023-03-20T01:55:43;2.30;;;2.10;;
1829;SDS011;914;48.118;11.600;2023-03-20T01:58:14;2.10;;;2.00;;
1829;SDS011;914;48.118;11.600;2023-03-20T02:00:45;2.50;;;1.90;;
1829;SDS011;914;48.118;11.600;2023-03-20T02:03:13;2.37;;;2.10;;
1829;SDS011;914;48.118;11.600;2023-03-20T02:05:40;2.30;;;2.10;;
1829;SDS011;914;48.118;11.600;2023-03-20T02:08:27;2.00;;;1.80;;
1829;SDS011;914;48.118;11.600;2023-03-20T02:10:54;3.40;;;2.10;;
1829;SDS011;914;48.118;11.600;2023-03-20T02:13:23;1.70;;;1.60;;
1829;SDS011;914;48.118;11.600;2023-03-20T02:15:55;1.93;;;1.73;;
1829;SDS011;914;48.118;11.600;2023-03-20T02:18:24;2.00;;;1.90;;
1829;SDS011;914;48.118;11.600;2023-03-20T02:27:28;4.17;;;1.90;;
1829;SDS011;914;48.118;11.600;2023-03-20T02:43:25;1.47;;;1.37;;
1829;SDS011;914;48.118;11.600;2023-03-20T02:46:25;1.70;;;1.60;;
1829;SDS011;914;48.118;11.600;2023-03-20T02:49:02;1.63;;;1.53;;
1829;SDS011;914;48.118;11.600;2023-03-20T02:59:53;1.43;;;1.33;;
1829;SDS011;914;48.118;11.600;2023-03-20T03:02:27;1.43;;;1.33;;
1829;SDS011;914;48.118;11.600;2023-03-20T03:05:07;1.50;;;1.40;;
1829;SDS011;914;48.118;11.600;2023-03-20T03:07:40;1.70;;;1.60;;
1829;SDS011;914;48.118;11.600;2023-03-20T03:10:12;1.60;;;1.50;;
1829;SDS011;914;48.118;11.600;2023-03-20T03:12:44;1.70;;;1.53;;
1829;SDS011;914;48.118;11.600;2023-03-20T03:15:20;1.80;;;1.70;;
1829;SDS011;914;48.118;11.600;2023-03-20T03:17:56;1.70;;;1.60;;
1829;SDS011;914;48.118;11.600;2023-03-20T03:20:31;2.30;;;1.80;;
1829;SDS011;914;48.118;11.600;2023-03-20T03:23:01;3.37;;;2.17;;
1829;SDS011;914;48.118;11.600;2023-03-20T03:25:31;1.73;;;1.63;;
1829;SDS011;914;48.118;11.600;2023-03-20T03:28:14;1.87;;;1.77;;
1829;SDS011;914;48.118;11.600;2023-03-20T03:30:45;2.50;;;1.90;;
1829;SDS011;914;48.118;11.600;2023-03-20T03:33:13;1.50;;;1.40;;
1829;SDS011;914;48.118;11.600;2023-03-20T03:35:44;2.13;;;2.00;;
1829;SDS011;914;48.118;11.600;2023-03-20T03:43:34;4.13;;;2.00;;
1829;SDS011;914;48.118;11.600;2023-03-20T03:46:15;1.93;;;1.80;;
1829;SDS011;914;48.118;11.600;2023-03-20T03:48:51;2.00;;;1.77;;
1829;SDS011;914;48.118;11.600;2023-03-20T03:51:22;2.10;;;1.90;;
1829;SDS011;914;48.118;11.600;2023-03-20T03:53:54;2.33;;;1.87;;
1829;SDS011;914;48.118;11.600;2023-03-20T03:56:32;9.90;;;2.70;;
1829;SDS011;914;48.118;11.600;2023-03-20T03:59:01;2.33;;;1.80;;
1829;SDS011;914;48.118;11.600;2023-03-20T04:01:30;2.40;;;2.00;;
1829;SDS011;914;48.118;11.600;2023-03-20T04:03:59;2.30;;;1.90;;
1829;SDS011;914;48.118;11.600;2023-03-20T04:06:28;2.40;;;2.20;;
1829;SDS011;914;48.118;11.600;2023-03-20T04:08:54;1.87;;;1.73;;
1829;SDS011;914;48.118;11.600;2023-03-20T04:11:23;1.87;;;1.77;;
1829;SDS011;914;48.118;11.600;2023-03-20T04:13:51;1.90;;;1.80;;
1829;SDS011;914;48.118;11.600;2023-03-20T04:16:17;2.30;;;2.20;;
1829;SDS011;914;48.118;11.600;2023-03-20T04:18:46;2.10;;;1.90;;
1829;SDS011;914;48.118;11.600;2023-03-20T04:21:12;1.97;;;1.70;;
1829;SDS011;914;48.118;11.600;2023-03-20T04:23:40;2.10;;;1.70;;
1829;SDS011;914;48.118;11.600;2023-03-20T04:26:05;2.20;;;2.00;;
1829;SDS011;914;48.118;11.600;2023-03-20T04:28:31;2.93;;;1.93;;
1829;SDS011;914;48.118;11.600;2023-03-20T04:30:58;2.33;;;1.83;;
1829;SDS011;914;48.118;11.600;2023-03-20T04:33:25;2.60;;;1.90;;
1829;SDS011;914;48.118;11.600;2023-03-20T04:35:55;1.70;;;1.60;;
1829;SDS011;914;48.118;11.600;2023-03-20T04:38:21;1.97;;;1.87;;
1829;SDS011;914;48.118;11.600;2023-03-20T04:40:48;1.80;;;1.70;;
1829;SDS011;914;48.118;11.600;2023-03-20T04:43:17;1.60;;;1.50;;
1829;SDS011;914;48.118;11.600;2023-03-20T04:45:43;1.97;;;1.80;;
1829;SDS011;914;48.118;11.600;2023-03-20T04:48:09;3.13;;;1.83;;
1829;SDS011;914;48.118;11.600;2023-03-20T04:50:34;1.87;;;1.70;;
1829;SDS011;914;48.118;11.600;2023-03-20T04:53:00;1.80;;;1.70;;
1829;SDS011;914;48.118;11.600;2023-03-20T04:55:26;1.83;;;1.73;;
1829;SDS011;914;48.118;11.600;2023-03-20T04:57:52;2.20;;;1.80;;
1829;SDS011;914;48.118;11.600;2023-03-20T05:00:17;1.60;;;1.50;;
1829;SDS011;914;48.118;11.600;2023-03-20T05:02:43;2.17;;;1.57;;
1829;SDS011;914;48.118;11.600;2023-03-20T05:05:09;1.90;;;1.50;;
1829;SDS011;914;48.118;11.600;2023-03-20T05:07:35;1.50;;;1.40;;
1829;SDS011;914;48.118;11.600;2023-03-20T05:10:01;1.70;;;1.60;;
1829;SDS011;914;48.118;11.600;2023-03-20T05:12:27;1.67;;;1.57;;
1829;SDS011;914;48.118;11.600;2023-03-20T05:14:53;1.67;;;1.57;;
1829;SDS011;914;48.118;11.600;2023-03-20T05:17:19;2.00;;;1.60;;
1829;SDS011;914;48.118;11.600;2023-03-20T05:19:45;1.73;;;1.63;;
1829;SDS011;914;48.118;11.600;2023-03-20T05:22:11;2.03;;;1.80;;
1829;SDS011;914;48.118;11.600;2023-03-20T05:24:37;2.00;;;1.90;;
1829;SDS011;914;48.118;11.600;2023-03-20T05:27:03;2.07;;;1.90;;
1829;SDS011;914;48.118;11.600;2023-03-20T05:29:29;2.40;;;2.20;;
1829;SDS011;914;48.118;11.600;2023-03-20T05:31:55;2.50;;;2.20;;
1829;SDS011;914;48.118;11.600;2023-03-20T05:34:20;1.80;;;1.70;;
1829;SDS011;914;48.118;11.600;2023-03-20T05:36:46;2.20;;;1.90;;
1829;SDS011;914;48.118;11.600;2023-03-20T05:39:12;3.93;;;1.93;;
1829;SDS011;914;48.118;11.600;2023-03-20T05:41:37;2.20;;;1.83;;
1829;SDS011;914;48.118;11.600;2023-03-20T05:44:03;1.97;;;1.80;;
1829;SDS011;914;48.118;11.600;2023-03-20T05:46:29;3.50;;;2.30;;
1829;SDS011;914;48.118;11.600;2023-03-20T05:48:54;3.90;;;2.20;;
1829;SDS011;914;48.118;11.600;2023-03-20T05:51:20;2.60;;;2.40;;
1829;SDS011;914;48.118;11.600;2023-03-20T05:53:46;2.33;;;2.13;;
1829;SDS011;914;48.118;11.600;2023-03-20T05:56:11;2.30;;;2.20;;
1829;SDS011;914;48.118;11.600;2023-03-20T05:58:37;2.70;;;2.50;;
1829;SDS011;914;48.118;11.600;2023-03-20T06:01:02;2.90;;;2.70;;
1829;SDS011;914;48.118;11.600;2023-03-20T06:03:28;2.93;;;2.70;;
1829;SDS011;914;48.118;11.600;2023-03-20T06:05:54;4.10;;;3.03;;
1829;SDS011;914;48.118;11.600;2023-03-20T06:08:20;3.43;;;3.00;;
1829;SDS011;914;48.118;11.600;2023-03-20T06:10:46;3.50;;;3.20;;
1829;SDS011;914;48.118;11.600;2023-03-20T06:13:13;3.63;;;3.33;;
1829;SDS011;914;48.118;11.600;2023-03-20T06:15:39;3.60;;;3.30;;
1829;SDS011;914;48.118;11.600;2023-03-20T06:18:05;4.63;;;3.50;;
1829;SDS011;914;48.118;11.600;2023-03-20T06:20:31;5.43;;;3.30;;
1829;SDS011;914;48.118;11.600;2023-03-20T06:22:57;4.20;;;3.73;;
1829;SDS011;914;48.118;11.600;2023-03-20T06:25:22;4.73;;;3.97;;
1829;SDS011;914;48.118;11.600;2023-03-20T06:27:48;4.30;;;3.90;;
1829;SDS011;914;48.118;11.600;2023-03-20T06:30:16;5.87;;;4.57;;
1829;SDS011;914;48.118;11.600;2023-03-20T06:32:42;5.10;;;4.50;;
1829;SDS011;914;48.118;11.600;2023-03-20T06:35:08;4.97;;;4.57;;
1829;SDS011;914;48.118;11.600;2023-03-20T06:37:34;4.70;;;4.23;;
1829;SDS011;914;48.118;11.600;2023-03-20T06:40:00;5.17;;;4.67;;
1829;SDS011;914;48.118;11.600;2023-03-20T06:42:31;6.33;;;4.87;;
1829;SDS011;914;48.118;11.600;2023-03-20T06:44:57;5.00;;;4.60;;
1829;SDS011;914;48.118;11.600;2023-03-20T06:47:22;10.03;;;5.07;;
1829;SDS011;914;48.118;11.600;2023-03-20T06:49:48;5.50;;;5.00;;
1829;SDS011;914;48.118;11.600;2023-03-20T06:52:14;5.13;;;4.63;;
1829;SDS011;914;48.118;11.600;2023-03-20T06:54:45;8.60;;;5.03;;
1829;SDS011;914;48.118;11.600;2023-03-20T06:57:11;5.30;;;4.83;;
1829;SDS011;914;48.118;11.600;2023-03-20T06:59:37;5.47;;;5.07;;
1829;SDS011;914;48.118;11.600;2023-03-20T07:02:03;5.50;;;5.00;;
1829;SDS011;914;48.118;11.600;2023-03-20T07:04:29;5.63;;;5.13;;
1829;SDS011;914;48.118;11.600;2023-03-20T07:06:56;5.37;;;4.87;;
1829;SDS011;914;48.118;11.600;2023-03-20T07:09:22;9.17;;;4.97;;
1829;SDS011;914;48.118;11.600;2023-03-20T07:11:48;6.00;;;4.60;;
1829;SDS011;914;48.118;11.600;2023-03-20T07:14:14;5.17;;;4.70;;
1829;SDS011;914;48.118;11.600;2023-03-20T07:16:40;5.17;;;4.67;;
1829;SDS011;914;48.118;11.600;2023-03-20T07:19:06;6.73;;;4.80;;
1829;SDS011;914;48.118;11.600;2023-03-20T07:21:31;5.70;;;4.10;;
1829;SDS011;914;48.118;11.600;2023-03-20T07:23:58;4.90;;;4.40;;
1829;SDS011;914;48.118;11.600;2023-03-20T07:26:23;5.00;;;4.50;;
1829;SDS011;914;48.118;11.600;2023-03-20T07:28:49;5.37;;;4.57;;
1829;SDS011;914;48.118;11.600;2023-03-20T07:31:19;8.33;;;4.80;;
1829;SDS011;914;48.118;11.600;2023-03-20T07:33:47;4.97;;;4.07;;
1829;SDS011;914;48.118;11.600;2023-03-20T07:36:12;6.00;;;4.80;;
1829;SDS011;914;48.118;11.600;2023-03-20T07:38:38;5.60;;;4.83;;
1829;SDS011;914;48.118;11.600;2023-03-20T07:41:04;5.50;;;4.63;;
1829;SDS011;914;48.118;11.600;2023-03-20T07:43:30;5.13;;;4.70;;
1829;SDS011;914;48.118;11.600;2023-03-20T07:45:55;4.63;;;4.20;;
1829;SDS011;914;48.118;11.600;2023-03-20T07:48:21;7.00;;;4.83;;
1829;SDS011;914;48.118;11.600;2023-03-20T07:50:46;8.73;;;4.97;;
1829;SDS011;914;48.118;11.600;2023-03-20T07:53:12;4.50;;;4.10;;
1829;SDS011;914;48.118;11.600;2023-03-20T07:55:38;5.43;;;4.30;;
1829;SDS011;914;48.118;11.600;2023-03-20T07:58:03;6.47;;;4.37;;
1829;SDS011;914;48.118;11.600;2023-03-20T08:00:29;4.97;;;4.33;;
1829;SDS011;914;48.118;11.600;2023-03-20T08:02:55;5.77;;;3.77;;
1829;SDS011;914;48.118;11.600;2023-03-20T08:05:21;4.63;;;4.03;;
1829;SDS011;914;48.118;11.600;2023-03-20T08:07:47;4.13;;;3.80;;
1829;SDS011;914;48.118;11.600;2023-03-20T08:10:13;3.63;;;3.33;;
1829;SDS011;914;48.118;11.600;2023-03-20T08:12:39;4.43;;;3.40;;
1829;SDS011;914;48.118;11.600;2023-03-20T08:15:05;3.80;;;3.40;;
1829;SDS011;914;48.118;11.600;2023-03-20T08:17:31;4.20;;;3.60;;
1829;SDS011;914;48.118;11.600;2023-03-20T08:19:56;3.70;;;3.10;;
1829;SDS011;914;48.118;11.600;2023-03-20T08:22:22;6.23;;;3.57;;
1829;SDS011;914;48.118;11.600;2023-03-20T08:24:47;3.97;;;3.57;;
1829;SDS011;914;48.118;11.600;2023-03-20T08:27:13;3.90;;;3.57;;
1829;SDS011;914;48.118;11.600;2023-03-20T08:29:39;5.23;;;3.57;;
1829;SDS011;914;48.118;11.600;2023-03-20T08:32:04;3.17;;;2.97;;
1829;SDS011;914;48.118;11.600;2023-03-20T08:34:31;3.60;;;3.30;;
1829;SDS011;914;48.118;11.600;2023-03-20T08:36:57;4.13;;;3.00;;
1829;SDS011;914;48.118;11.600;2023-03-20T08:39:23;3.10;;;2.90;;
1829;SDS011;914;48.118;11.600;2023-03-20T08:41:49;3.70;;;3.40;;
1829;SDS011;914;48.118;11.600;2023-03-20T08:44:15;3.00;;;2.80;;
1829;SDS011;914;48.118;11.600;2023-03-20T08:46:40;3.27;;;2.90;;
1829;SDS011;914;48.118;11.600;2023-03-20T08:49:08;3.10;;;2.90;;
1829;SDS011;914;48.118;11.600;2023-03-20T08:51:34;3.00;;;2.80;;
1829;SDS011;914;48.118;11.600;2023-03-20T08:54:00;4.00;;;3.10;;
1829;SDS011;914;48.118;11.600;2023-03-20T08:56:25;4.83;;;3.30;;
1829;SDS011;914;48.118;11.600;2023-03-20T08:58:51;3.07;;;2.77;;
1829;SDS011;914;48.118;11.600;2023-03-20T09:01:19;2.70;;;2.50;;
1829;SDS011;914;48.118;11.600;2023-03-20T09:03:45;2.60;;;2.40;;
1829;SDS011;914;48.118;11.600;2023-03-20T09:06:10;2.63;;;2.43;;
1829;SDS011;914;48.118;11.600;2023-03-20T09:08:36;2.77;;;2.40;;
1829;SDS011;914;48.118;11.600;2023-03-20T09:11:03;2.83;;;2.50;;
1829;SDS011;914;48.118;11.600;2023-03-20T09:13:29;2.77;;;2.57;;
1829;SDS011;914;48.118;11.600;2023-03-20T09:15:55;2.90;;;2.70;;
1829;SDS011;914;48.118;11.600;2023-03-20T09:18:21;4.07;;;2.97;;
1829;SDS011;914;48.118;11.600;2023-03-20T09:20:47;2.47;;;2.27;;
1829;SDS011;914;48.118;11.600;2023-03-20T09:23:13;2.77;;;2.57;;
1829;SDS011;914;48.118;11.600;2023-03-20T09:25:39;3.37;;;2.37;;
1829;SDS011;914;48.118;11.600;2023-03-20T09:28:05;3.03;;;2.40;;
1829;SDS011;914;48.118;11.600;2023-03-20T09:30:31;3.80;;;2.27;;
1829;SDS011;914;48.118;11.600;2023-03-20T09:32:56;2.97;;;2.00;;
1829;SDS011;914;48.118;11.600;2023-03-20T09:35:22;3.27;;;2.30;;
1829;SDS011;914;48.118;11.600;2023-03-20T09:37:48;3.37;;;1.90;;
1829;SDS011;914;48.118;11.600;2023-03-20T09:40:24;2.33;;;2.10;;
1829;SDS011;914;48.118;11.600;2023-03-20T09:54:04;4.87;;;1.80;;
1829;SDS011;914;48.118;11.600;2023-03-20T09:56:50;2.87;;;1.90;;
1829;SDS011;914;48.118;11.600;2023-03-20T09:59:17;3.43;;;2.10;;
1829;SDS011;914;48.118;11.600;2023-03-20T10:01:49;2.97;;;1.93;;
1829;SDS011;914;48.118;11.600;2023-03-20T10:04:26;2.40;;;2.20;;
1829;SDS011;914;48.118;11.600;2023-03-20T10:06:53;2.50;;;2.30;;
1829;SDS011;914;48.118;11.600;2023-03-20T10:09:21;2.33;;;2.13;;
1829;SDS011;914;48.118;11.600;2023-03-20T10:17:43;1.90;;;1.70;;
1829;SDS011;914;48.118;11.600;2023-03-20T10:20:21;1.80;;;1.60;;
1829;SDS011;914;48.118;11.600;2023-03-20T10:23:06;2.30;;;2.10;;
1829;SDS011;914;48.118;11.600;2023-03-20T10:25:39;2.00;;;1.80;;
1829;SDS011;914;48.118;11.600;2023-03-20T10:28:11;2.87;;;1.50;;
1829;SDS011;914;48.118;11.600;2023-03-20T10:30:53;7.97;;;1.60;;
1829;SDS011;914;48.118;11.600;2023-03-20T10:42:02;1.30;;;1.17;;
1829;SDS011;914;48.118;11.600;2023-03-20T10:44:38;1.20;;;1.17;;
1829;SDS011;914;48.118;11.600;2023-03-20T10:47:09;2.20;;;1.27;;
1829;SDS011;914;48.118;11.600;2023-03-20T10:49:39;1.37;;;1.27;;
1829;SDS011;914;48.118;11.600;2023-03-20T10:52:20;1.07;;;1.07;;
1829;SDS011;914;48.118;11.600;2023-03-20T10:54:55;1.63;;;1.07;;
1829;SDS011;914;48.118;11.600;2023-03-20T10:57:26;1.97;;;1.17;;
1829;SDS011;914;48.118;11.600;2023-03-20T10:59:56;1.03;;;0.93;;
1829;SDS011;914;48.118;11.600;2023-03-20T11:02:29;1.27;;;1.17;;
1829;SDS011;914;48.118;11.600;2023-03-20T11:04:59;0.90;;;0.90;;
1829;SDS011;914;48.118;11.600;2023-03-20T11:07:33;0.77;;;0.77;;
1829;SDS011;914;48.118;11.600;2023-03-20T11:12:37;0.90;;;0.90;;
1829;SDS011;914;48.118;11.600;2023-03-20T11:15:26;2.97;;;0.83;;
1829;SDS011;914;48.118;11.600;2023-03-20T11:18:03;2.27;;;1.10;;
1829;SDS011;914;48.118;11.600;2023-03-20T11:20:37;1.33;;;0.83;;
1829;SDS011;914;48.118;11.600;2023-03-20T11:23:24;1.00;;;1.00;;
1829;SDS011;914;48.118;11.600;2023-03-20T11:25:56;0.90;;;0.90;;
1829;SDS011;914;48.118;11.600;2023-03-20T11:28:40;0.90;;;0.90;;
1829;SDS011;914;48.118;11.600;2023-03-20T11:34:10;0.90;;;0.90;;
1829;SDS011;914;48.118;11.600;2023-03-20T11:36:35;1.10;;;0.83;;
1829;SDS011;914;48.118;11.600;2023-03-20T11:39:05;0.87;;;0.87;;
1829;SDS011;914;48.118;11.600;2023-03-20T11:41:40;1.17;;;1.00;;
1829;SDS011;914;48.118;11.600;2023-03-20T11:44:22;0.80;;;0.80;;
1829;SDS011;914;48.118;11.600;2023-03-20T11:47:04;0.73;;;0.73;;
1829;SDS011;914;48.118;11.600;2023-03-20T11:49:44;1.10;;;0.80;;
1829;SDS011;914;48.118;11.600;2023-03-20T11:52:30;0.93;;;0.93;;
1829;SDS011;914;48.118;11.600;2023-03-20T11:55:21;0.80;;;0.80;;
1829;SDS011;914;48.118;11.600;2023-03-20T11:58:04;1.30;;;1.20;;
1829;SDS011;914;48.118;11.600;2023-03-20T12:00:46;1.20;;;1.20;;
1829;SDS011;914;48.118;11.600;2023-03-20T12:06:16;2.00;;;1.00;;
1829;SDS011;914;48.118;11.600;2023-03-20T12:08:54;1.73;;;0.80;;
1829;SDS011;914;48.118;11.600;2023-03-20T12:11:50;1.20;;;0.90;;
1829;SDS011;914;48.118;11.600;2023-03-20T12:14:30;0.90;;;0.90;;
1829;SDS011;914;48.118;11.600;2023-03-20T12:25:28;5.10;;;1.10;;
1829;SDS011;914;48.118;11.600;2023-03-20T12:28:11;2.30;;;1.07;;
1829;SDS011;914;48.118;11.600;2023-03-20T12:36:14;1.20;;;1.10;;
1829;SDS011;914;48.118;11.600;2023-03-20T12:38:51;1.13;;;1.10;;
1829;SDS011;914;48.118;11.600;2023-03-20T12:41:38;1.40;;;1.30;;
1829;SDS011;914;48.118;11.600;2023-03-20T12:44:41;1.10;;;1.10;;
1829;SDS011;914;48.118;11.600;2023-03-20T12:50:58;1.10;;;1.10;;
1829;SDS011;914;48.118;11.600;2023-03-20T12:54:30;1.20;;;1.10;;
1829;SDS011;914;48.118;11.600;2023-03-20T13:05:47;1.10;;;1.10;;
1829;SDS011;914;48.118;11.600;2023-03-20T13:11:12;2.87;;;1.20;;
1829;SDS011;914;48.118;11.600;2023-03-20T13:13:58;2.00;;;1.40;;
1829;SDS011;914;48.118;11.600;2023-03-20T13:22:05;1.27;;;1.17;;
1829;SDS011;914;48.118;11.600;2023-03-20T13:25:24;4.23;;;1.10;;
1829;SDS011;914;48.118;11.600;2023-03-20T13:28:09;1.60;;;1.10;;
1829;SDS011;914;48.118;11.600;2023-03-20T13:31:19;1.30;;;1.20;;
1829;SDS011;914;48.118;11.600;2023-03-20T13:33:59;0.90;;;0.90;;
1829;SDS011;914;48.118;11.600;2023-03-20T13:39:47;1.00;;;1.00;;
1829;SDS011;914;48.118;11.600;2023-03-20T13:42:50;0.97;;;0.97;;
1829;SDS011;914;48.118;11.600;2023-03-20T13:45:42;1.40;;;1.00;;
1829;SDS011;914;48.118;11.600;2023-03-20T13:48:21;2.17;;;1.00;;
1829;SDS011;914;48.118;11.600;2023-03-20T13:54:10;2.80;;;0.97;;
1829;SDS011;914;48.118;11.600;2023-03-20T13:57:22;2.10;;;1.20;;
1829;SDS011;914;48.118;11.600;2023-03-20T14:05:39;1.27;;;1.03;;
1829;SDS011;914;48.118;11.600;2023-03-20T14:13:44;1.10;;;1.10;;
1829;SDS011;914;48.118;11.600;2023-03-20T14:16:25;1.00;;;1.00;;
1829;SDS011;914;48.118;11.600;2023-03-20T14:19:04;1.30;;;1.20;;
1829;SDS011;914;48.118;11.600;2023-03-20T14:21:30;0.90;;;0.90;;
1829;SDS011;914;48.118;11.600;2023-03-20T14:24:05;1.07;;;1.03;;
1829;SDS011;914;48.118;11.600;2023-03-20T14:26:42;1.13;;;1.13;;
1829;SDS011;914;48.118;11.600;2023-03-20T14:29:20;1.23;;;1.13;;
1829;SDS011;914;48.118;11.600;2023-03-20T14:34:52;2.80;;;1.20;;
1829;SDS011;914;48.118;11.600;2023-03-20T14:37:37;2.67;;;1.20;;
1829;SDS011;914;48.118;11.600;2023-03-20T14:40:27;4.33;;;1.20;;
1829;SDS011;914;48.118;11.600;2023-03-20T14:43:03;1.00;;;1.00;;
1829;SDS011;914;48.118;11.600;2023-03-20T14:52:20;2.77;;;1.10;;
1829;SDS011;914;48.118;11.600;2023-03-20T14:55:45;1.27;;;1.17;;
1829;SDS011;914;48.118;11.600;2023-03-20T14:57:53;1.30;;;1.20;;
1829;SDS011;914;48.118;11.600;2023-03-20T15:00:27;1.33;;;1.20;;
1829;SDS011;914;48.118;11.600;2023-03-20T15:03:07;1.17;;;1.13;;
1829;SDS011;914;48.118;11.600;2023-03-20T15:05:43;1.40;;;1.30;;
1829;SDS011;914;48.118;11.600;2023-03-20T15:08:27;1.40;;;1.30;;
1829;SDS011;914;48.118;11.600;2023-03-20T15:11:09;1.20;;;1.20;;
1829;SDS011;914;48.118;11.600;2023-03-20T15:13:51;1.20;;;1.13;;
1829;SDS011;914;48.118;11.600;2023-03-20T15:16:31;1.67;;;1.57;;
1829;SDS011;914;48.118;11.600;2023-03-20T15:19:19;1.43;;;1.33;;
1829;SDS011;914;48.118;11.600;2023-03-20T15:21:50;1.20;;;1.20;;
1829;SDS011;914;48.118;11.600;2023-03-20T15:24:31;1.40;;;1.30;;
1829;SDS011;914;48.118;11.600;2023-03-20T15:27:09;1.23;;;1.20;;
1829;SDS011;914;48.118;11.600;2023-03-20T15:29:47;1.50;;;1.40;;
1829;SDS011;914;48.118;11.600;2023-03-20T15:32:25;1.43;;;1.20;;
1829;SDS011;914;48.118;11.600;2023-03-20T15:34:53;1.10;;;1.00;;
1829;SDS011;914;48.118;11.600;2023-03-20T15:37:32;1.10;;;1.10;;
1829;SDS011;914;48.118;11.600;2023-03-20T15:40:11;1.00;;;1.00;;
1829;SDS011;914;48.118;11.600;2023-03-20T15:42:55;0.90;;;0.90;;
1829;SDS011;914;48.118;11.600;2023-03-20T15:45:34;1.20;;;1.10;;
1829;SDS011;914;48.118;11.600;2023-03-20T15:48:16;2.60;;;1.20;;
1829;SDS011;914;48.118;11.600;2023-03-20T15:50:56;1.20;;;1.10;;
1829;SDS011;914;48.118;11.600;2023-03-20T15:53:35;3.13;;;1.37;;
1829;SDS011;914;48.118;11.600;2023-03-20T15:56:11;1.30;;;1.20;;
1829;SDS011;914;48.118;11.600;2023-03-20T15:58:42;1.40;;;1.27;;
1829;SDS011;914;48.118;11.600;2023-03-20T16:01:19;7.83;;;1.30;;
1829;SDS011;914;48.118;11.600;2023-03-20T16:03:56;2.90;;;1.50;;
1829;SDS011;914;48.118;11.600;2023-03-20T16:06:32;1.83;;;1.30;;
1829;SDS011;914;48.118;11.600;2023-03-20T16:09:11;2.90;;;1.40;;
1829;SDS011;914;48.118;11.600;2023-03-20T16:11:58;1.43;;;1.20;;
1829;SDS011;914;48.118;11.600;2023-03-20T16:14:33;1.80;;;1.10;;
1829;SDS011;914;48.118;11.600;2023-03-20T16:17:11;1.17;;;1.10;;
1829;SDS011;914;48.118;11.600;2023-03-20T16:19:50;1.53;;;1.20;;
1829;SDS011;914;48.118;11.600;2023-03-20T16:22:29;1.30;;;1.20;;
1829;SDS011;914;48.118;11.600;2023-03-20T16:25:08;2.47;;;1.10;;
1829;SDS011;914;48.118;11.600;2023-03-20T16:27:51;5.03;;;1.67;;
1829;SDS011;914;48.118;11.600;2023-03-20T16:30:31;98.93;;;10.87;;
1829;SDS011;914;48.118;11.600;2023-03-20T16:33:12;22.20;;;2.97;;
1829;SDS011;914;48.118;11.600;2023-03-20T16:35:53;23.27;;;3.93;;
1829;SDS011;914;48.118;11.600;2023-03-20T16:38:26;10.67;;;2.23;;
1829;SDS011;914;48.118;11.600;2023-03-20T16:41:16;23.60;;;3.57;;
1829;SDS011;914;48.118;11.600;2023-03-20T16:44:13;21.27;;;3.80;;
1829;SDS011;914;48.118;11.600;2023-03-20T16:52:56;2.47;;;1.57;;
1829;SDS011;914;48.118;11.600;2023-03-20T16:55:34;1.93;;;1.40;;
1829;SDS011;914;48.118;11.600;2023-03-20T16:58:21;3.73;;;1.40;;
1829;SDS011;914;48.118;11.600;2023-03-20T17:01:04;1.63;;;1.20;;
1829;SDS011;914;48.118;11.600;2023-03-20T17:03:52;1.37;;;1.27;;
1829;SDS011;914;48.118;11.600;2023-03-20T17:06:36;1.73;;;1.20;;
1829;SDS011;914;48.118;11.600;2023-03-20T17:09:28;1.30;;;1.20;;
1829;SDS011;914;48.118;11.600;2023-03-20T17:12:04;1.60;;;1.10;;
1829;SDS011;914;48.118;11.600;2023-03-20T17:14:40;2.17;;;1.30;;
1829;SDS011;914;48.118;11.600;2023-03-20T17:17:12;1.40;;;1.30;;
1829;SDS011;914;48.118;11.600;2023-03-20T17:19:39;1.73;;;1.23;;
1829;SDS011;914;48.118;11.600;2023-03-20T17:22:19;1.50;;;1.40;;
1829;SDS011;914;48.118;11.600;2023-03-20T17:24:47;1.83;;;1.37;;
1829;SDS011;914;48.118;11.600;2023-03-20T17:27:13;4.13;;;1.30;;
1829;SDS011;914;48.118;11.600;2023-03-20T17:29:40;5.90;;;1.40;;
1829;SDS011;914;48.118;11.600;2023-03-20T17:32:09;2.07;;;1.30;;
1829;SDS011;914;48.118;11.600;2023-03-20T17:34:36;1.30;;;1.30;;
1829;SDS011;914;48.118;11.600;2023-03-20T17:37:02;1.33;;;1.23;;
1829;SDS011;914;48.118;11.600;2023-03-20T17:39:28;3.23;;;1.50;;
1829;SDS011;914;48.118;11.600;2023-03-20T17:41:54;5.57;;;1.70;;
1829;SDS011;914;48.118;11.600;2023-03-20T17:44:20;2.43;;;1.80;;
1829;SDS011;914;48.118;11.600;2023-03-20T17:46:47;1.33;;;1.27;;
1829;SDS011;914;48.118;11.600;2023-03-20T17:49:13;1.60;;;1.50;;
1829;SDS011;914;48.118;11.600;2023-03-20T17:51:47;4.13;;;1.50;;
1829;SDS011;914;48.118;11.600;2023-03-20T17:54:12;1.60;;;1.50;;
1829;SDS011;914;48.118;11.600;2023-03-20T17:56:38;1.40;;;1.30;;
1829;SDS011;914;48.118;11.600;2023-03-20T17:59:08;5.27;;;1.60;;
1829;SDS011;914;48.118;11.600;2023-03-20T18:01:39;2.00;;;1.47;;
1829;SDS011;914;48.118;11.600;2023-03-20T18:04:05;2.00;;;1.70;;
1829;SDS011;914;48.118;11.600;2023-03-20T18:06:31;1.97;;;1.80;;